createdAt,value
2019-02-08T00:02:57.026Z,11.87
2019-02-08T00:08:00.420Z,12.50
2019-02-08T00:13:04.078Z,9.13
2019-02-08T00:18:07.467Z,9.40
2019-02-08T00:23:10.871Z,9.20
2019-02-08T00:28:14.403Z,9.07
2019-02-08T00:33:17.803Z,10.47
2019-02-08T00:38:21.318Z,11.30
2019-02-08T00:43:24.720Z,9.50
2019-02-08T00:48:28.108Z,9.37
2019-02-08T00:53:33.487Z,11.63
2019-02-08T00:58:34.927Z,11.12
2019-02-08T01:03:38.513Z,9.83
2019-02-08T01:08:41.955Z,9.27
2019-02-08T01:13:45.450Z,8.53
2019-02-08T01:18:48.889Z,8.00
2019-02-08T01:23:52.282Z,11.23
2019-02-08T01:28:55.720Z,10.17
2019-02-08T01:33:59.337Z,9.47
2019-02-08T01:39:03.065Z,11.47
2019-02-08T01:44:06.549Z,9.10
2019-02-08T01:49:10.064Z,9.57
2019-02-08T01:54:13.463Z,8.97
2019-02-08T01:59:16.895Z,8.27
2019-02-08T02:04:20.291Z,10.53
2019-02-08T02:09:23.823Z,9.17
2019-02-08T02:14:27.296Z,11.60
2019-02-08T02:19:30.877Z,8.50
2019-02-08T02:24:34.391Z,10.50
2019-02-08T02:29:37.808Z,8.75
2019-02-08T02:34:41.237Z,7.90
2019-02-08T02:39:44.677Z,7.60
2019-02-08T02:44:48.072Z,10.87
2019-02-08T02:49:51.681Z,10.23
2019-02-08T02:54:55.081Z,9.23
2019-02-08T02:59:58.649Z,6.87
2019-02-08T03:05:02.163Z,10.00
2019-02-08T03:10:06.345Z,9.27
2019-02-08T03:15:10.819Z,9.20
2019-02-08T03:20:15.619Z,8.60
2019-02-08T03:25:20.749Z,9.20
2019-02-08T03:30:35.892Z,9.43
2019-02-08T03:35:39.407Z,10.20
2019-02-08T03:40:42.828Z,10.37
2019-02-08T03:45:47.132Z,10.73
2019-02-08T03:50:50.529Z,10.87
2019-02-08T03:55:58.270Z,10.53
2019-02-08T04:01:01.081Z,8.67
2019-02-08T04:06:04.637Z,8.43
2019-02-08T04:11:08.115Z,10.20
2019-02-08T04:16:11.510Z,9.33
2019-02-08T04:21:14.983Z,9.73
2019-02-08T04:26:18.386Z,8.20
2019-02-08T04:31:22.080Z,9.00
2019-02-08T04:36:26.598Z,8.60
2019-02-08T04:41:30.090Z,8.27
2019-02-08T04:46:33.584Z,8.23
2019-02-08T04:51:36.977Z,9.90
2019-02-08T04:56:40.440Z,10.47
2019-02-08T05:01:43.935Z,6.90
2019-02-08T05:06:47.335Z,10.13
2019-02-08T05:11:50.747Z,9.10
2019-02-08T05:16:54.168Z,8.33
2019-02-08T05:21:57.633Z,7.43
2019-02-08T05:27:01.038Z,8.80
2019-02-08T05:32:04.494Z,9.77
2019-02-08T05:37:07.926Z,8.73
2019-02-08T05:42:11.428Z,10.97
2019-02-08T05:47:14.864Z,9.07
2019-02-08T05:52:18.264Z,10.93
2019-02-08T05:57:21.692Z,9.83
2019-02-08T06:02:25.127Z,7.90
2019-02-08T06:07:32.684Z,9.80
2019-02-08T06:12:36.084Z,9.23
2019-02-08T06:17:40.502Z,9.53
2019-02-08T06:22:43.921Z,10.00
2019-02-08T06:27:47.389Z,8.77
2019-02-08T06:32:50.878Z,8.97
2019-02-08T06:37:54.353Z,9.05
2019-02-08T06:42:57.925Z,9.90
2019-02-08T06:48:01.532Z,10.00
2019-02-08T06:53:05.023Z,10.00
2019-02-08T06:58:19.074Z,9.60
2019-02-08T07:03:29.542Z,9.57
2019-02-08T07:08:40.045Z,8.23
2019-02-08T07:13:50.574Z,8.37
2019-02-08T07:19:00.254Z,10.60
2019-02-08T07:24:24.808Z,9.63
2019-02-08T07:29:41.453Z,10.47
2019-02-08T07:35:05.972Z,9.63
2019-02-08T07:40:20.403Z,11.00
2019-02-08T07:45:30.807Z,9.83
2019-02-08T07:56:08.230Z,7.60
2019-02-08T08:01:22.589Z,9.93
2019-02-08T08:06:33.779Z,11.73
2019-02-08T08:11:42.228Z,9.03
2019-02-08T08:16:50.406Z,11.73
2019-02-08T08:24:02.997Z,8.17
2019-02-08T08:29:11.940Z,9.90
2019-02-08T08:34:24.296Z,10.13
2019-02-08T08:39:42.424Z,10.97
2019-02-08T08:46:01.213Z,8.95
2019-02-08T08:51:18.030Z,11.83
2019-02-08T08:58:46.216Z,10.47
2019-02-08T09:04:06.035Z,10.77
2019-02-08T09:09:25.674Z,9.17
2019-02-08T09:14:40.819Z,11.17
2019-02-08T09:19:58.758Z,9.57
2019-02-08T09:27:13.288Z,10.40
2019-02-08T09:32:55.155Z,10.90
2019-02-08T09:38:07.398Z,9.43
2019-02-08T09:43:21.729Z,8.13
2019-02-08T09:48:37.904Z,9.40
2019-02-08T09:54:00.850Z,9.00
2019-02-08T09:59:16.060Z,9.30
2019-02-08T10:04:30.024Z,8.07
2019-02-08T10:09:50.199Z,9.67
2019-02-08T10:15:06.385Z,9.23
2019-02-08T10:20:24.771Z,9.90
2019-02-08T10:27:44.968Z,9.37
2019-02-08T10:32:59.183Z,9.23
2019-02-08T10:38:13.190Z,10.07
2019-02-08T10:43:27.692Z,10.13
2019-02-08T10:48:41.831Z,10.80
2019-02-08T10:54:29.752Z,10.97
2019-02-08T11:00:48.699Z,10.90
2019-02-08T11:10:11.207Z,8.50
2019-02-08T11:15:26.059Z,8.30
2019-02-08T11:20:29.290Z,9.50
2019-02-08T11:25:32.482Z,9.00
2019-02-08T11:30:35.695Z,9.90
2019-02-08T11:35:38.862Z,9.97
2019-02-08T11:40:42.106Z,8.00
2019-02-08T11:45:45.307Z,9.27
2019-02-08T11:50:48.531Z,8.87
2019-02-08T11:55:51.813Z,7.60
2019-02-08T12:00:56.762Z,8.40
2019-02-08T12:05:59.996Z,8.00
2019-02-08T12:11:03.193Z,8.73
2019-02-08T12:16:06.393Z,9.30
2019-02-08T12:21:09.596Z,11.00
2019-02-08T12:26:12.769Z,10.07
2019-02-08T12:31:15.994Z,11.30
2019-02-08T12:36:19.194Z,8.83
2019-02-08T12:41:22.478Z,10.93
2019-02-08T12:46:25.799Z,10.23
2019-02-08T12:51:29.083Z,9.27
2019-02-08T12:56:32.351Z,10.27
2019-02-08T13:01:37.766Z,10.33
2019-02-08T13:06:38.878Z,9.83
2019-02-08T13:11:42.246Z,9.83
2019-02-08T13:16:45.466Z,11.33
2019-02-08T13:21:48.852Z,9.63
2019-02-08T13:26:53.063Z,11.23
2019-02-08T13:31:55.338Z,10.77
2019-02-08T13:36:58.622Z,9.83
2019-02-08T13:42:01.881Z,10.17
2019-02-08T13:47:05.144Z,8.90
2019-02-08T13:52:08.491Z,8.07
2019-02-08T13:57:11.819Z,5.93
2019-02-08T14:02:15.203Z,9.25
2019-02-08T14:07:18.518Z,7.73
2019-02-08T14:12:21.822Z,6.37
2019-02-08T14:17:25.118Z,6.90
2019-02-08T14:22:28.399Z,7.03
2019-02-08T14:27:31.682Z,8.93
2019-02-08T14:32:35.049Z,8.13
2019-02-08T14:37:39.069Z,8.60
2019-02-08T14:42:42.436Z,8.63
2019-02-08T14:47:45.770Z,10.80
2019-02-08T14:52:49.168Z,10.83
2019-02-08T14:57:52.803Z,11.03
2019-02-08T15:02:56.134Z,9.07
2019-02-08T15:07:59.461Z,8.23
2019-02-08T15:13:02.727Z,9.13
2019-02-08T15:18:06.139Z,8.47
2019-02-08T15:23:09.462Z,7.97
2019-02-08T15:28:12.746Z,9.23
2019-02-08T15:33:16.118Z,10.40
2019-02-08T15:38:19.486Z,8.30
2019-02-08T15:43:23.619Z,6.90
2019-02-08T15:48:27.055Z,8.53
2019-02-08T15:53:30.371Z,10.87
2019-02-08T15:58:33.852Z,7.87
2019-02-08T16:03:37.549Z,7.17
2019-02-08T16:08:40.963Z,6.70
2019-02-08T16:13:44.267Z,6.70
2019-02-08T16:18:47.637Z,5.50
2019-02-08T16:23:50.922Z,5.33
2019-02-08T16:28:54.251Z,6.97
2019-02-08T16:33:57.672Z,6.13
2019-02-08T16:39:01.037Z,5.43
2019-02-08T16:44:04.621Z,6.10
2019-02-08T16:49:07.944Z,5.67
2019-02-08T16:54:11.265Z,6.90
2019-02-08T16:59:14.552Z,5.17
2019-02-08T17:04:17.824Z,5.83
2019-02-08T17:09:21.179Z,4.90
2019-02-08T17:14:24.482Z,5.80
2019-02-08T17:19:27.795Z,5.10
2019-02-08T17:24:31.103Z,6.33
2019-02-08T17:29:34.419Z,6.62
2019-02-08T17:34:37.707Z,5.27
2019-02-08T17:39:41.053Z,6.67
2019-02-08T17:44:44.428Z,5.43
2019-02-08T17:49:47.915Z,9.07
2019-02-08T17:54:51.269Z,8.87
2019-02-08T17:59:54.689Z,8.10
2019-02-08T18:04:58.263Z,7.73
2019-02-08T18:10:01.591Z,7.08
2019-02-08T18:15:05.900Z,7.87
2019-02-08T18:20:14.861Z,8.23
2019-02-08T18:25:18.199Z,7.63
2019-02-08T18:30:21.861Z,8.60
2019-02-08T18:35:26.026Z,6.87
2019-02-08T18:40:29.482Z,8.77
2019-02-08T18:45:33.945Z,6.93
2019-02-08T18:50:40.729Z,9.27
2019-02-08T18:55:44.129Z,7.60
2019-02-08T19:00:49.518Z,10.07
2019-02-08T19:05:52.955Z,14.23
2019-02-08T19:10:56.485Z,16.17
2019-02-08T19:15:59.816Z,12.50
2019-02-08T19:21:03.181Z,10.43
2019-02-08T19:26:06.586Z,8.17
2019-02-08T19:31:09.991Z,6.63
2019-02-08T19:36:13.450Z,6.47
2019-02-08T19:41:16.883Z,7.13
2019-02-08T19:46:20.495Z,7.37
2019-02-08T19:51:23.965Z,9.07
2019-02-08T19:56:27.353Z,12.97
2019-02-08T20:01:31.781Z,11.17
2019-02-08T20:06:35.320Z,7.73
2019-02-08T20:11:38.717Z,7.80
2019-02-08T20:16:42.049Z,6.10
2019-02-08T20:21:46.045Z,7.90
2019-02-08T20:26:49.461Z,9.97
2019-02-08T20:31:53.030Z,8.30
2019-02-08T20:36:56.558Z,9.20
2019-02-08T20:42:00.915Z,7.27
2019-02-08T20:47:04.421Z,7.85
2019-02-08T20:52:08.047Z,7.63
2019-02-08T20:57:11.437Z,7.43
2019-02-08T21:02:14.839Z,8.50
2019-02-08T21:07:18.143Z,8.70
2019-02-08T21:12:21.470Z,5.93
2019-02-08T21:17:24.805Z,6.87
2019-02-08T21:22:28.098Z,6.70
2019-02-08T21:27:31.394Z,6.83
2019-02-08T21:32:34.795Z,9.13
2019-02-08T21:37:38.328Z,8.20
2019-02-08T21:42:41.659Z,6.40
2019-02-08T21:47:45.065Z,6.03
2019-02-08T21:52:48.467Z,5.73
2019-02-08T21:57:51.778Z,7.13
2019-02-08T22:02:55.342Z,5.27
2019-02-08T22:07:58.712Z,6.63
2019-02-08T22:13:02.410Z,6.28
2019-02-08T22:18:06.542Z,8.47
2019-02-08T22:23:10.163Z,6.23
2019-02-08T22:28:13.415Z,8.17
2019-02-08T22:33:16.670Z,5.70
2019-02-08T22:38:20.082Z,6.97
2019-02-08T22:43:23.324Z,5.57
2019-02-08T22:48:26.595Z,6.97
2019-02-08T22:53:29.779Z,5.10
2019-02-08T22:58:32.975Z,5.97
2019-02-08T23:03:37.240Z,6.10
2019-02-08T23:08:40.449Z,4.37
2019-02-08T23:13:43.730Z,5.50
2019-02-08T23:18:46.907Z,6.13
2019-02-08T23:23:50.130Z,6.53
2019-02-08T23:28:53.341Z,4.87
2019-02-08T23:33:56.499Z,5.50
2019-02-08T23:38:59.683Z,5.40
2019-02-08T23:44:02.850Z,5.40
2019-02-08T23:49:06.041Z,5.80
2019-02-08T23:54:09.219Z,5.87
2019-02-08T23:59:12.480Z,6.70
